createdAt,value
2018-09-11T00:03:15.734Z,101323.81
2018-09-11T00:08:19.349Z,101327.36
2018-09-11T00:13:22.975Z,101328.48
2018-09-11T00:18:33.401Z,101329.02
2018-09-11T00:23:36.979Z,101332.31
2018-09-11T00:28:40.584Z,101343.09
2018-09-11T00:33:44.225Z,101338.64
2018-09-11T00:38:48.062Z,101333.47
2018-09-11T00:43:51.897Z,101335.13
2018-09-11T00:48:55.443Z,101323.39
2018-09-11T00:54:02.360Z,101331.81
2018-09-11T00:59:06.278Z,101323.99
2018-09-11T01:04:09.901Z,101332.20
2018-09-11T01:09:13.651Z,101318.28
2018-09-11T01:14:17.281Z,101324.01
2018-09-11T01:19:21.086Z,101326.73
2018-09-11T01:24:24.765Z,101309.64
2018-09-11T01:29:28.751Z,101293.08
2018-09-11T01:34:32.519Z,101284.09
2018-09-11T01:39:36.172Z,101294.47
2018-09-11T01:44:39.768Z,101300.64
2018-09-11T01:49:43.626Z,101311.32
2018-09-11T01:54:47.177Z,101295.42
2018-09-11T01:59:50.960Z,101295.27
2018-09-11T02:04:55.084Z,101280.33
2018-09-11T02:09:58.901Z,101284.01
2018-09-11T02:15:02.576Z,101290.13
2018-09-11T02:20:06.252Z,101283.78
2018-09-11T02:25:10.013Z,101287.86
2018-09-11T02:30:15.313Z,101290.25
2018-09-11T02:35:18.871Z,101286.45
2018-09-11T02:40:22.469Z,101287.35
2018-09-11T02:45:26.278Z,101295.96
2018-09-11T02:50:29.873Z,101306.39
2018-09-11T02:55:33.427Z,101304.17
2018-09-11T03:00:37.220Z,101305.34
2018-09-11T03:05:40.829Z,101302.47
2018-09-11T03:10:44.372Z,101296.34
2018-09-11T03:15:47.906Z,101298.20
2018-09-11T03:20:51.805Z,101291.89
2018-09-11T03:25:55.401Z,101293.02
2018-09-11T03:30:58.933Z,101295.37
2018-09-11T03:36:02.533Z,101298.61
2018-09-11T03:41:06.175Z,101296.50
2018-09-11T03:46:09.830Z,101289.97
2018-09-11T03:51:13.532Z,101287.87
2018-09-11T03:56:17.077Z,101289.48
2018-09-11T04:01:20.867Z,101283.52
2018-09-11T04:06:24.366Z,101282.02
2018-09-11T04:11:27.983Z,101283.02
2018-09-11T04:16:31.500Z,101295.52
2018-09-11T04:21:35.089Z,101292.92
2018-09-11T04:26:38.669Z,101290.69
2018-09-11T04:31:42.269Z,101289.12
2018-09-11T04:36:45.779Z,101277.91
2018-09-11T04:41:49.336Z,101272.05
2018-09-11T04:46:52.999Z,101279.97
2018-09-11T04:51:56.618Z,101272.64
2018-09-11T04:57:00.242Z,101267.79
2018-09-11T05:02:03.987Z,101264.34
2018-09-11T05:07:08.129Z,101259.06
2018-09-11T05:12:12.036Z,101263.64
2018-09-11T05:17:15.626Z,101257.81
2018-09-11T05:22:19.136Z,101257.13
2018-09-11T05:27:22.754Z,101247.37
2018-09-11T05:32:26.332Z,101251.80
2018-09-11T05:37:29.893Z,101263.48
2018-09-11T05:42:33.500Z,101267.28
2018-09-11T05:47:37.210Z,101273.11
2018-09-11T05:52:41.257Z,101271.65
2018-09-11T05:57:44.824Z,101275.29
2018-09-11T06:02:48.894Z,101264.98
2018-09-11T06:07:52.449Z,101260.63
2018-09-11T06:12:56.194Z,101254.52
2018-09-11T06:17:59.819Z,101257.17
2018-09-11T06:23:03.709Z,101259.88
2018-09-11T06:28:07.395Z,101255.28
2018-09-11T06:33:11.181Z,101263.27
2018-09-11T06:38:15.596Z,101264.68
2018-09-11T06:43:19.249Z,101261.58
2018-09-11T06:48:22.869Z,101269.66
2018-09-11T06:53:28.874Z,101274.63
2018-09-11T06:58:32.368Z,101281.56
2018-09-11T07:03:36.002Z,101277.48
2018-09-11T07:08:39.775Z,101271.74
2018-09-11T07:13:43.350Z,101283.83
2018-09-11T07:18:47.126Z,101282.97
2018-09-11T07:23:50.762Z,101281.80
2018-09-11T07:28:54.339Z,101282.39
2018-09-11T07:33:57.921Z,101291.29
2018-09-11T07:39:01.495Z,101278.30
2018-09-11T07:44:05.108Z,101290.50
2018-09-11T07:49:08.782Z,101281.58
2018-09-11T07:54:12.421Z,101283.88
2018-09-11T07:59:15.929Z,101292.05
2018-09-11T08:04:19.714Z,101283.12
2018-09-11T08:09:23.263Z,101274.70
2018-09-11T08:14:28.706Z,101277.63
2018-09-11T08:19:32.348Z,101290.52
2018-09-11T08:24:35.911Z,101289.16
2018-09-11T08:29:39.477Z,101279.83
2018-09-11T08:34:43.037Z,101287.58
2018-09-11T08:39:46.610Z,101280.84
2018-09-11T08:44:50.183Z,101274.55
2018-09-11T08:49:53.690Z,101274.94
2018-09-11T08:54:57.597Z,101269.70
2018-09-11T09:00:01.199Z,101271.03
2018-09-11T09:05:04.770Z,101261.52
2018-09-11T09:10:08.342Z,101260.36
2018-09-11T09:15:12.174Z,101266.16
2018-09-11T09:20:15.714Z,101270.44
2018-09-11T09:25:19.345Z,101279.91
2018-09-11T09:30:31.066Z,101285.27
2018-09-11T09:35:34.747Z,101277.73
2018-09-11T09:40:38.323Z,101270.89
2018-09-11T09:45:41.875Z,101266.05
2018-09-11T09:50:45.442Z,101279.30
2018-09-11T09:55:48.984Z,101262.92
2018-09-11T10:01:01.686Z,101264.69
2018-09-11T10:06:05.443Z,101263.48
2018-09-11T10:11:09.083Z,101267.95
2018-09-11T10:16:12.962Z,101259.30
2018-09-11T10:21:16.556Z,101262.16
2018-09-11T10:26:20.393Z,101255.86
2018-09-11T10:31:24.286Z,101251.81
2018-09-11T10:36:27.913Z,101250.65
2018-09-11T10:41:31.604Z,101256.57
2018-09-11T10:46:35.256Z,101253.91
2018-09-11T10:51:39.230Z,101247.81
2018-09-11T10:56:43.021Z,101244.84
2018-09-11T11:01:46.866Z,101238.51
2018-09-11T11:06:50.830Z,101240.24
2018-09-11T11:11:54.537Z,101233.05
2018-09-11T11:16:58.264Z,101223.45
2018-09-11T11:22:01.990Z,101233.72
2018-09-11T11:27:05.718Z,101235.05
2018-09-11T11:32:09.434Z,101225.30
2018-09-11T11:37:13.358Z,101227.58
2018-09-11T11:42:17.035Z,101224.83
2018-09-11T11:47:21.234Z,101226.97
2018-09-11T11:52:24.829Z,101216.77
2018-09-11T11:57:28.517Z,101212.52
2018-09-11T12:02:32.283Z,101221.23
2018-09-11T12:07:35.873Z,101219.03
2018-09-11T12:12:39.599Z,101214.18
2018-09-11T12:17:43.338Z,101222.19
2018-09-11T12:22:47.072Z,101206.40
2018-09-11T12:27:50.745Z,101203.00
2018-09-11T12:32:54.302Z,101211.28
2018-09-11T12:37:57.867Z,101216.73
2018-09-11T12:43:01.504Z,101202.65
2018-09-11T12:48:05.754Z,101190.86
2018-09-11T12:53:09.060Z,101201.52
2018-09-11T12:58:12.661Z,101191.80
2018-09-11T13:03:16.510Z,101199.13
2018-09-11T13:08:20.168Z,101184.58
2018-09-11T13:13:23.716Z,101192.95
2018-09-11T13:18:27.317Z,101181.91
2018-09-11T13:23:31.052Z,101176.66
2018-09-11T13:28:34.692Z,101178.30
2018-09-11T13:33:38.241Z,101169.67
2018-09-11T13:38:41.808Z,101173.24
2018-09-11T13:43:45.373Z,101172.09
2018-09-11T13:48:48.909Z,101172.84
2018-09-11T13:53:54.791Z,101171.43
2018-09-11T13:59:02.357Z,101154.63
2018-09-11T14:04:06.163Z,101152.89
2018-09-11T14:09:12.331Z,101157.30
2018-09-11T14:14:16.254Z,101154.63
2018-09-11T14:19:20.001Z,101153.48
2018-09-11T14:24:23.900Z,101145.75
2018-09-11T14:29:32.968Z,101146.39
2018-09-11T14:34:36.604Z,101138.33
2018-09-11T14:39:40.408Z,101150.72
2018-09-11T14:44:44.080Z,101142.28
2018-09-11T14:49:47.780Z,101153.70
2018-09-11T14:54:51.483Z,101151.45
2018-09-11T14:59:55.199Z,101152.86
2018-09-11T15:04:58.916Z,101158.50
2018-09-11T15:10:02.665Z,101162.33
2018-09-11T15:15:06.318Z,101156.94
2018-09-11T15:20:10.047Z,101153.26
2018-09-11T15:25:13.697Z,101152.19
2018-09-11T15:30:25.502Z,101153.62
2018-09-11T15:35:29.062Z,101149.02
2018-09-11T15:40:32.660Z,101139.00
2018-09-11T15:45:36.433Z,101138.56
2018-09-11T15:50:40.268Z,101149.29
2018-09-11T15:55:44.000Z,101142.37
2018-09-11T16:00:47.597Z,101139.84
2018-09-11T16:05:51.370Z,101135.61
2018-09-11T16:10:55.075Z,101127.68
2018-09-11T16:15:58.659Z,101128.98
2018-09-11T16:21:02.380Z,101115.23
2018-09-11T16:26:06.021Z,101118.69
2018-09-11T16:31:09.635Z,101111.94
2018-09-11T16:36:13.279Z,101107.82
2018-09-11T16:41:17.194Z,101106.36
2018-09-11T16:46:20.915Z,101105.69
2018-09-11T16:51:24.600Z,101098.76
2018-09-11T16:56:28.124Z,101088.40
2018-09-11T17:01:32.581Z,101086.98
2018-09-11T17:06:36.266Z,101085.08
2018-09-11T17:11:39.918Z,101091.20
2018-09-11T17:16:43.694Z,101083.19
2018-09-11T17:21:47.379Z,101085.77
2018-09-11T17:26:51.092Z,101093.05
2018-09-11T17:31:54.651Z,101089.88
2018-09-11T17:36:58.403Z,101094.64
2018-09-11T17:42:02.014Z,101095.33
2018-09-11T17:47:07.166Z,101105.47
2018-09-11T17:52:10.715Z,101114.58
2018-09-11T17:57:14.491Z,101114.95
2018-09-11T18:02:18.539Z,101112.77
2018-09-11T18:07:22.830Z,101117.48
2018-09-11T18:12:26.499Z,101125.44
2018-09-11T18:17:29.998Z,101126.41
2018-09-11T18:22:33.617Z,101134.59
2018-09-11T18:27:37.533Z,101138.30
2018-09-11T18:32:41.063Z,101145.80
2018-09-11T18:37:44.705Z,101149.97
2018-09-11T18:42:48.343Z,101152.65
2018-09-11T18:47:51.972Z,101166.11
2018-09-11T18:52:55.599Z,101162.35
2018-09-11T18:57:59.389Z,101167.59
2018-09-11T19:03:03.559Z,101173.27
2018-09-11T19:08:07.405Z,101169.52
2018-09-11T19:13:11.293Z,101167.92
2018-09-11T19:18:15.060Z,101163.05
2018-09-11T19:23:18.607Z,101170.74
2018-09-11T19:28:22.345Z,101169.14
2018-09-11T19:33:25.943Z,101163.56
2018-09-11T19:38:29.480Z,101162.14
2018-09-11T19:43:33.053Z,101170.08
2018-09-11T19:48:36.628Z,101172.34
2018-09-11T19:53:40.216Z,101168.38
2018-09-11T19:58:43.822Z,101170.14
2018-09-11T20:03:47.683Z,101162.98
2018-09-11T20:08:51.307Z,101157.10
2018-09-11T20:13:54.963Z,101156.48
2018-09-11T20:18:58.540Z,101151.11
2018-09-11T20:24:02.392Z,101156.95
2018-09-11T20:29:05.979Z,101156.27
2018-09-11T20:34:09.771Z,101153.61
2018-09-11T20:39:13.696Z,101148.31
2018-09-11T20:44:18.835Z,101145.39
2018-09-11T20:49:22.406Z,101139.86
2018-09-11T20:54:25.998Z,101139.97
2018-09-11T20:59:29.566Z,101143.16
2018-09-11T21:04:33.184Z,101145.59
2018-09-11T21:09:37.030Z,101141.81
2018-09-11T21:14:40.770Z,101144.14
2018-09-11T21:19:44.377Z,101146.97
2018-09-11T21:24:47.997Z,101140.75
2018-09-11T21:29:51.535Z,101138.56
2018-09-11T21:34:55.503Z,101147.51
2018-09-11T21:39:59.268Z,101145.23
2018-09-11T21:45:02.834Z,101142.37
2018-09-11T21:50:06.580Z,101138.33
2018-09-11T21:55:11.638Z,101142.25
2018-09-11T22:00:16.093Z,101146.61
2018-09-11T22:05:20.020Z,101148.00
2018-09-11T22:10:23.619Z,101152.20
2018-09-11T22:15:27.262Z,101151.66
2018-09-11T22:20:30.937Z,101151.73
2018-09-11T22:25:44.944Z,101147.61
2018-09-11T22:30:48.675Z,101160.20
2018-09-11T22:35:52.232Z,101157.88
2018-09-11T22:40:55.825Z,101163.28
2018-09-11T22:45:59.698Z,101152.09
2018-09-11T22:51:03.354Z,101157.95
2018-09-11T22:56:07.098Z,101164.11
2018-09-11T23:01:10.714Z,101154.48
2018-09-11T23:06:14.387Z,101158.30
2018-09-11T23:11:18.076Z,101152.31
2018-09-11T23:16:21.687Z,101149.92
2018-09-11T23:21:25.317Z,101149.19
2018-09-11T23:26:29.137Z,101152.27
2018-09-11T23:31:32.931Z,101151.25
2018-09-11T23:36:36.651Z,101148.80
2018-09-11T23:41:40.348Z,101147.27
2018-09-11T23:46:44.110Z,101143.88
2018-09-11T23:51:47.777Z,101148.27
2018-09-11T23:56:51.453Z,101153.09
